Time;durP1;ratioP1;P1;durP2;ratioP2;P2;SDS_P1;SDS_P2;PMS_P1;PMS_P2;Temp;Humidity;BMP_temperature;BMP_pressure;BME280_temperature;BME280_humidity;BME280_pressure;Samples;Min_cycle;Max_cycle;Signal;HPM_P1;HPM_P2
2021/07/06 00:02:04;;;;;;;5.47;3.78;;;;;;;17.73;99.46;97788.31;5050648;28;20025;-81
2021/07/06 00:04:29;;;;;;;8.68;4.13;;;;;;;17.79;98.35;97780.59;5050596;28;20025;-80
2021/07/06 00:06:55;;;;;;;10.73;4.78;;;;;;;17.70;99.07;97783.47;5050539;28;20377;-81
2021/07/06 00:09:20;;;;;;;9.07;4.72;;;;;;;17.69;99.28;97783.81;5049318;28;20083;-80
2021/07/06 00:11:46;;;;;;;6.80;4.72;;;;;;;17.82;98.77;97788.22;5050680;28;20789;-79
2021/07/06 00:14:11;;;;;;;10.20;5.00;;;;;;;17.93;97.76;97786.56;5049635;28;20482;-80
2021/07/06 00:16:37;;;;;;;6.50;4.93;;;;;;;17.64;99.50;97779.31;5050652;28;20028;-81
2021/07/06 00:19:02;;;;;;;5.15;4.65;;;;;;;17.57;100.00;97787.41;5050535;28;20377;-79
2021/07/06 00:21:28;;;;;;;5.40;4.88;;;;;;;17.56;100.00;97777.47;5049792;28;20108;-80
2021/07/06 00:23:53;;;;;;;7.65;4.60;;;;;;;17.71;99.32;97795.34;5049871;28;20059;-79
2021/07/06 00:26:19;;;;;;;5.97;4.68;;;;;;;17.74;98.75;97789.94;5049782;28;20021;-79
2021/07/06 00:28:46;;;;;;;7.47;4.47;;;;;;;17.73;98.72;97793.06;5031722;28;20036;-78
2021/07/06 00:31:12;;;;;;;6.78;4.50;;;;;;;17.64;99.22;97798.69;5048627;28;20025;-79
2021/07/06 00:33:38;;;;;;;5.93;4.82;;;;;;;17.59;99.73;97793.38;5032357;28;20044;-80
2021/07/06 00:36:04;;;;;;;8.43;4.90;;;;;;;17.71;99.21;97795.34;5050564;28;20045;-80
2021/07/06 00:38:30;;;;;;;5.22;3.92;;;;;;;17.79;98.57;97797.22;5050475;28;20029;-78
2021/07/06 00:40:57;;;;;;;7.78;4.82;;;;;;;17.87;97.84;97790.72;5050286;28;20105;-79
2021/07/06 00:43:22;;;;;;;8.05;4.53;;;;;;;17.89;97.54;97797.53;5050181;28;20025;-80
2021/07/06 00:45:49;;;;;;;5.45;4.60;;;;;;;17.80;98.29;97802.38;5032788;28;20025;-80
2021/07/06 00:48:15;;;;;;;6.57;4.43;;;;;;;17.75;97.98;97799.84;5050167;28;20405;-77
2021/07/06 00:50:41;;;;;;;15.48;5.82;;;;;;;17.49;100.00;97800.16;5050149;28;20444;-78
2021/07/06 00:53:06;;;;;;;9.27;4.65;;;;;;;17.39;100.00;97799.78;5032345;28;20037;-79
2021/07/06 00:55:32;;;;;;;8.80;4.25;;;;;;;17.50;100.00;97809.25;5050461;28;20087;-80
2021/07/06 00:57:57;;;;;;;9.77;5.22;;;;;;;17.44;100.00;97797.63;5050394;28;20032;-78
2021/07/06 01:00:25;;;;;;;9.18;5.93;;;;;;;17.46;100.00;97808.31;5032465;28;20053;-80
2021/07/06 01:02:51;;;;;;;5.93;4.75;;;;;;;17.53;100.00;97811.34;5050263;28;20052;-79
2021/07/06 01:05:19;;;;;;;9.32;5.38;;;;;;;17.57;100.00;97813.09;5050381;28;20025;-78
2021/07/06 01:07:46;;;;;;;8.70;3.97;;;;;;;17.64;99.91;97818.84;5050011;28;20063;-80
2021/07/06 01:10:12;;;;;;;6.03;5.43;;;;;;;17.53;100.00;97808.56;5049960;28;20056;-80
2021/07/06 01:12:38;;;;;;;7.03;4.80;;;;;;;17.58;100.00;97811.13;5050008;28;20393;-80
2021/07/06 01:15:09;;;;;;;6.53;5.45;;;;;;;17.42;100.00;97804.63;5050352;28;20025;-79
2021/07/06 01:17:37;;;;;;;10.60;5.07;;;;;;;17.67;100.00;97806.28;5050118;28;20021;-80
2021/07/06 01:20:12;;;;;;;8.32;6.18;;;;;;;17.76;99.65;97804.22;5050042;28;20097;-79
2021/07/06 01:22:38;;;;;;;6.03;5.27;;;;;;;17.70;99.72;97802.84;5050460;28;20029;-80
2021/07/06 01:25:06;;;;;;;9.10;5.05;;;;;;;17.77;99.57;97816.91;5053218;28;20277;-80
2021/07/06 01:27:32;;;;;;;7.53;5.53;;;;;;;17.73;99.56;97813.22;5058810;28;20033;-80
2021/07/06 01:29:59;;;;;;;6.22;4.72;;;;;;;17.67;99.92;97811.81;5050341;28;20017;-81
2021/07/06 01:32:24;;;;;;;6.05;4.55;;;;;;;17.49;100.00;97805.69;5049615;28;20009;-80
2021/07/06 01:34:50;;;;;;;8.60;4.97;;;;;;;17.35;100.00;97807.16;5049467;28;20106;-78
2021/07/06 01:37:17;;;;;;;9.32;5.22;;;;;;;17.34;100.00;97817.41;5049960;28;20025;-80
2021/07/06 01:39:43;;;;;;;5.13;4.63;;;;;;;17.24;100.00;97797.69;5050033;28;20436;-78
2021/07/06 01:42:09;;;;;;;5.43;4.80;;;;;;;17.09;100.00;97802.72;5051120;28;20039;-79
2021/07/06 01:44:34;;;;;;;7.50;5.05;;;;;;;16.96;100.00;97791.97;5053903;28;20115;-80
2021/07/06 01:46:59;;;;;;;12.75;5.80;;;;;;;17.06;100.00;97808.13;5053019;28;20136;-80
2021/07/06 01:49:25;;;;;;;5.57;4.82;;;;;;;16.94;100.00;97808.09;5053320;28;20063;-78
2021/07/06 01:51:50;;;;;;;10.63;5.07;;;;;;;16.92;100.00;97794.59;5035527;28;20029;-79
2021/07/06 01:54:16;;;;;;;6.07;4.95;;;;;;;17.13;100.00;97798.09;5053185;28;20438;-79
2021/07/06 01:56:45;;;;;;;5.55;4.38;;;;;;;17.12;100.00;97798.47;5053835;28;20422;-79
2021/07/06 01:59:11;;;;;;;6.38;4.70;;;;;;;17.26;100.00;97806.47;5053186;28;20037;-80
2021/07/06 02:01:38;;;;;;;5.25;4.35;;;;;;;17.23;100.00;97807.13;5052378;28;20112;-80
2021/07/06 02:04:05;;;;;;;6.10;4.20;;;;;;;17.01;100.00;97800.84;5052717;28;20035;-79
2021/07/06 02:06:31;;;;;;;7.43;5.68;;;;;;;17.23;100.00;97801.59;5053008;28;20021;-79
2021/07/06 02:08:56;;;;;;;7.15;4.72;;;;;;;17.08;100.00;97801.09;5052836;28;20036;-80
2021/07/06 02:11:22;;;;;;;7.32;4.88;;;;;;;17.18;100.00;97790.75;5052652;28;20048;-80
2021/07/06 02:13:49;;;;;;;6.63;5.20;;;;;;;17.12;100.00;97795.69;5035027;28;20059;-80
2021/07/06 02:16:14;;;;;;;5.95;4.35;;;;;;;17.12;100.00;97790.97;5053054;28;20025;-79
2021/07/06 02:18:40;;;;;;;7.57;5.45;;;;;;;16.96;100.00;97783.69;5052750;28;20052;-81
2021/07/06 02:21:09;;;;;;;7.30;4.50;;;;;;;16.88;100.00;97793.69;5052964;28;20465;-78
2021/07/06 02:23:34;;;;;;;5.78;4.50;;;;;;;17.26;99.78;97795.41;5052879;28;20134;-82
2021/07/06 02:26:06;;;;;;;4.78;4.25;;;;;;;17.09;100.00;97802.72;5052230;28;20084;-78
2021/07/06 02:28:33;;;;;;;5.68;4.35;;;;;;;17.02;100.00;97796.94;5034763;28;20032;-79
2021/07/06 02:30:59;;;;;;;5.82;4.80;;;;;;;16.95;100.00;97798.63;5052539;28;20024;-83
2021/07/06 02:33:27;;;;;;;7.22;4.57;;;;;;;16.94;100.00;97806.13;5052923;28;20013;-82
2021/07/06 02:35:52;;;;;;;5.18;4.68;;;;;;;16.82;100.00;97795.00;5033575;28;20033;-81
2021/07/06 02:38:18;;;;;;;7.00;5.30;;;;;;;16.88;100.00;97801.16;5052388;28;20090;-81
2021/07/06 02:40:44;;;;;;;4.82;4.00;;;;;;;16.77;100.00;97789.72;5052672;28;20029;-82
2021/07/06 02:43:09;;;;;;;6.45;5.30;;;;;;;16.76;100.00;97796.38;5034687;28;20501;-82
2021/07/06 02:45:35;;;;;;;11.65;4.85;;;;;;;16.80;100.00;97790.97;5053245;28;20436;-83
2021/07/06 02:48:01;;;;;;;8.00;4.82;;;;;;;16.74;100.00;97795.09;5052390;28;20052;-80
2021/07/06 02:50:28;;;;;;;6.78;4.60;;;;;;;16.73;100.00;97797.06;5052422;28;20055;-84
2021/07/06 02:52:54;;;;;;;6.18;5.57;;;;;;;16.84;100.00;97795.50;5052241;28;20041;-82
2021/07/06 02:55:19;;;;;;;8.20;4.72;;;;;;;16.65;100.00;97803.47;5052812;28;20032;-82
2021/07/06 02:57:45;;;;;;;8.68;5.30;;;;;;;16.81;100.00;97811.94;5052861;28;20021;-83
2021/07/06 03:00:23;;;;;;;7.72;4.90;;;;;;;16.75;100.00;97808.59;5049241;28;20036;-79
2021/07/06 03:02:51;;;;;;;10.70;5.47;;;;;;;16.62;100.00;97809.69;5042550;28;20083;-79
2021/07/06 03:05:18;;;;;;;6.10;4.70;;;;;;;16.58;100.00;97808.72;5014456;28;20018;-81
2021/07/06 03:07:45;;;;;;;7.32;4.55;;;;;;;16.63;100.00;97814.06;5047978;28;20025;-78
2021/07/06 03:10:15;;;;;;;7.50;5.15;;;;;;;16.45;100.00;97810.59;5051765;28;20466;-79
2021/07/06 03:12:42;;;;;;;8.25;5.75;;;;;;;16.44;100.00;97805.41;5051872;28;20033;-83
2021/07/06 03:15:11;;;;;;;7.45;5.22;;;;;;;16.45;100.00;97818.06;5052107;28;20037;-81
2021/07/06 03:17:37;;;;;;;7.00;5.15;;;;;;;16.41;100.00;97819.91;5050392;28;20547;-81
2021/07/06 03:20:04;;;;;;;8.50;5.95;;;;;;;16.38;100.00;97826.09;5017013;28;20172;-83
2021/07/06 03:22:29;;;;;;;9.73;4.82;;;;;;;16.72;100.00;97836.91;5030189;28;20111;-79
2021/07/06 03:24:55;;;;;;;10.77;4.60;;;;;;;16.55;100.00;97824.03;5031265;28;20435;-81
2021/07/06 03:27:20;;;;;;;9.27;5.10;;;;;;;16.64;100.00;97835.00;5031394;28;20025;-81
2021/07/06 03:29:46;;;;;;;8.30;4.43;;;;;;;16.64;100.00;97839.72;5013889;28;20033;-82
2021/07/06 03:32:12;;;;;;;4.80;4.30;;;;;;;16.58;100.00;97819.78;5031089;28;20832;-82
2021/07/06 03:34:39;;;;;;;5.60;4.15;;;;;;;16.79;100.00;97844.63;5031250;28;20149;-78
2021/07/06 03:37:07;;;;;;;5.40;4.60;;;;;;;16.80;100.00;97838.75;5013449;28;20053;-79
2021/07/06 03:39:37;;;;;;;5.80;3.50;;;;;;;16.98;99.63;97840.22;5013287;28;20030;-81
2021/07/06 03:42:07;;;;;;;8.15;5.13;;;;;;;17.12;98.37;97843.50;5013308;28;20060;-82
2021/07/06 03:44:34;;;;;;;9.75;4.95;;;;;;;17.19;97.08;97844.91;5053106;28;20120;-79
2021/07/06 03:47:00;;;;;;;7.60;4.50;;;;;;;17.53;95.34;97839.81;5058646;28;20839;-80
2021/07/06 03:49:26;;;;;;;7.28;4.30;;;;;;;17.65;93.37;97830.75;5052457;28;20021;-79
2021/07/06 03:51:51;;;;;;;9.88;4.72;;;;;;;17.76;92.52;97837.41;5051147;28;20036;-79
2021/07/06 03:54:16;;;;;;;4.88;3.95;;;;;;;18.12;91.23;97840.22;5040193;28;20114;-76
2021/07/06 03:56:43;;;;;;;5.65;4.05;;;;;;;18.43;89.59;97844.31;5050319;28;20037;-73
2021/07/06 03:59:10;;;;;;;9.50;3.72;;;;;;;18.83;86.33;97844.34;5051146;28;20032;-73
2021/07/06 04:01:36;;;;;;;7.70;4.55;;;;;;;18.95;85.37;97850.66;5030543;28;20033;-74
2021/07/06 04:04:01;;;;;;;5.20;4.35;;;;;;;19.42;83.31;97845.25;5029881;28;20033;-75
2021/07/06 04:06:27;;;;;;;5.85;4.10;;;;;;;18.99;85.08;97845.22;5030200;28;20086;-74
2021/07/06 04:08:53;;;;;;;9.95;4.70;;;;;;;19.12;83.77;97855.91;5030456;28;20029;-73
2021/07/06 04:11:18;;;;;;;7.07;4.80;;;;;;;19.28;83.67;97853.19;5012656;28;20022;-73
2021/07/06 04:13:43;;;;;;;5.90;3.97;;;;;;;19.97;81.80;97851.84;5030808;28;20055;-73
2021/07/06 04:16:09;;;;;;;6.72;4.38;;;;;;;20.45;77.04;97867.31;5030783;28;20025;-72
2021/07/06 04:18:34;;;;;;;5.70;4.18;;;;;;;19.88;79.39;97860.34;5030566;28;20026;-73
2021/07/06 04:21:00;;;;;;;5.05;3.95;;;;;;;19.88;80.27;97854.81;5030652;28;20067;-73
2021/07/06 04:23:25;;;;;;;4.55;3.83;;;;;;;19.91;79.38;97859.63;5030322;28;20481;-74
2021/07/06 04:25:51;;;;;;;4.65;3.53;;;;;;;20.14;78.29;97852.25;5030224;28;20040;-74
2021/07/06 04:28:16;;;;;;;6.90;3.60;;;;;;;19.86;79.30;97851.56;5030295;28;20079;-73
2021/07/06 04:30:41;;;;;;;7.28;4.32;;;;;;;19.56;81.20;97842.06;5030418;28;20029;-74
2021/07/06 04:33:07;;;;;;;7.38;3.92;;;;;;;19.25;83.01;97846.38;5030079;28;20042;-73
2021/07/06 04:35:32;;;;;;;4.35;3.90;;;;;;;19.60;80.98;97842.97;5030037;28;20057;-72
2021/07/06 04:37:58;;;;;;;6.00;4.63;;;;;;;19.57;81.24;97857.56;5030291;28;20470;-74
2021/07/06 04:40:24;;;;;;;8.40;4.15;;;;;;;19.40;82.07;97850.38;5030052;28;20075;-73
2021/07/06 04:42:52;;;;;;;13.60;4.80;;;;;;;19.27;83.00;97844.03;5030171;28;20025;-74
2021/07/06 04:45:17;;;;;;;6.03;4.60;;;;;;;19.01;84.37;97843.72;5030734;28;20033;-73
2021/07/06 04:47:44;;;;;;;4.65;4.25;;;;;;;18.81;86.27;97846.66;5033388;28;20409;-74
2021/07/06 04:50:11;;;;;;;8.77;5.05;;;;;;;18.35;88.50;97853.56;5036324;28;20074;-77
2021/07/06 04:52:37;;;;;;;8.10;4.68;;;;;;;18.16;89.49;97854.97;5048653;28;20013;-75
2021/07/06 04:55:04;;;;;;;6.15;4.28;;;;;;;18.09;90.08;97854.75;5049078;28;20391;-73
2021/07/06 04:57:31;;;;;;;6.75;4.50;;;;;;;18.42;88.98;97859.34;5049712;28;20029;-74
2021/07/06 04:59:56;;;;;;;9.75;4.43;;;;;;;18.64;88.66;97850.53;5050336;28;20481;-77
2021/07/06 05:02:22;;;;;;;6.10;5.40;;;;;;;18.69;87.53;97862.19;5032276;28;20036;-73
2021/07/06 05:04:47;;;;;;;6.38;5.63;;;;;;;18.60;87.35;97864.28;5049752;28;20052;-75
2021/07/06 05:07:13;;;;;;;6.60;4.97;;;;;;;18.43;88.11;97853.44;5032167;28;20748;-74
2021/07/06 05:09:39;;;;;;;12.73;5.47;;;;;;;18.48;88.51;97853.19;5049922;28;20094;-74
2021/07/06 05:12:04;;;;;;;6.57;5.35;;;;;;;18.58;88.95;97851.91;5032010;28;20025;-75
2021/07/06 05:14:30;;;;;;;6.63;5.70;;;;;;;19.11;85.88;97857.06;5049313;28;20562;-74
2021/07/06 05:16:55;;;;;;;5.57;4.63;;;;;;;19.46;84.66;97862.81;5053020;28;20036;-74
2021/07/06 05:19:21;;;;;;;6.68;4.95;;;;;;;19.73;82.36;97864.72;5053870;28;20462;-74
2021/07/06 05:21:46;;;;;;;8.77;4.75;;;;;;;19.86;80.54;97856.31;5036055;28;20393;-74
2021/07/06 05:24:12;;;;;;;5.30;4.75;;;;;;;19.98;81.24;97843.16;5053537;28;20028;-75
2021/07/06 05:26:37;;;;;;;11.88;6.13;;;;;;;19.92;80.02;97844.59;5035334;28;20029;-74
2021/07/06 05:29:04;;;;;;;8.13;5.47;;;;;;;20.11;79.05;97852.19;5051925;28;20124;-73
2021/07/06 05:31:29;;;;;;;7.97;4.93;;;;;;;20.41;79.52;97860.84;5052374;28;20024;-73
2021/07/06 05:33:55;;;;;;;10.75;5.10;;;;;;;20.33;79.67;97859.09;5053504;28;20033;-73
2021/07/06 05:36:20;;;;;;;6.85;5.15;;;;;;;19.80;81.03;97847.44;5053128;28;20433;-73
2021/07/06 05:38:46;;;;;;;7.60;5.30;;;;;;;19.63;82.67;97856.94;5053207;28;20516;-76
2021/07/06 05:41:14;;;;;;;10.00;4.80;;;;;;;19.50;82.90;97849.84;5053297;28;20032;-74
2021/07/06 05:43:42;;;;;;;6.05;5.10;;;;;;;19.69;81.88;97855.50;5035098;28;20021;-74
2021/07/06 05:46:08;;;;;;;7.72;5.43;;;;;;;19.71;82.76;97850.41;5053550;28;20033;-74
2021/07/06 05:48:33;;;;;;;6.57;5.68;;;;;;;19.72;82.62;97852.03;5052426;28;20036;-73
2021/07/06 05:50:59;;;;;;;6.05;4.85;;;;;;;20.04;81.58;97855.59;5054055;28;20116;-74
2021/07/06 05:53:24;;;;;;;10.85;5.20;;;;;;;20.11;80.79;97858.53;5057507;28;20021;-74
2021/07/06 05:55:50;;;;;;;7.32;4.95;;;;;;;20.01;80.14;97848.00;5055299;28;20124;-73
2021/07/06 05:58:15;;;;;;;7.03;4.30;;;;;;;20.33;77.78;97839.66;5035248;28;20021;-74
2021/07/06 06:00:42;;;;;;;5.90;4.47;;;;;;;20.65;77.93;97852.28;5052815;28;20025;-74
2021/07/06 06:03:10;;;;;;;7.88;5.18;;;;;;;20.81;77.97;97847.47;5053033;28;20032;-74
2021/07/06 06:05:36;;;;;;;6.43;4.93;;;;;;;20.33;78.08;97853.53;5053007;28;20493;-74
2021/07/06 06:08:02;;;;;;;5.38;4.70;;;;;;;20.25;78.71;97844.19;5052951;28;20588;-74
2021/07/06 06:10:28;;;;;;;5.80;4.85;;;;;;;20.52;77.96;97857.16;5053113;28;20021;-74
2021/07/06 06:12:53;;;;;;;5.00;4.50;;;;;;;20.44;77.25;97852.59;5035499;28;20025;-73
2021/07/06 06:15:18;;;;;;;6.78;3.78;;;;;;;20.68;77.43;97857.91;5053668;28;20179;-74
2021/07/06 06:17:44;;;;;;;7.22;5.15;;;;;;;21.11;76.25;97858.84;5052900;28;20363;-73
2021/07/06 06:20:10;;;;;;;5.50;4.38;;;;;;;21.13;73.77;97860.09;5052393;28;20393;-73
2021/07/06 06:22:36;;;;;;;7.00;4.75;;;;;;;21.42;72.71;97861.47;5052336;28;20025;-73
2021/07/06 06:25:03;;;;;;;6.50;4.40;;;;;;;21.21;74.74;97861.03;5052633;28;20473;-73
2021/07/06 06:27:28;;;;;;;5.63;4.30;;;;;;;21.28;75.50;97856.41;5051878;28;20039;-73
2021/07/06 06:29:53;;;;;;;9.82;4.10;;;;;;;21.63;73.39;97850.72;5052750;28;20029;-73
2021/07/06 06:32:19;;;;;;;6.13;4.47;;;;;;;21.23;73.57;97853.94;5052338;28;20067;-73
2021/07/06 06:34:44;;;;;;;6.00;4.20;;;;;;;21.39;73.02;97858.63;5052342;28;20037;-73
2021/07/06 06:37:11;;;;;;;6.97;4.65;;;;;;;21.69;72.21;97862.34;5053492;28;20515;-74
2021/07/06 06:39:37;;;;;;;7.60;4.45;;;;;;;21.79;70.88;97856.19;5052541;28;20512;-73
2021/07/06 06:42:03;;;;;;;6.05;4.13;;;;;;;21.60;73.00;97851.47;5052316;28;20029;-75
2021/07/06 06:44:29;;;;;;;6.72;3.80;;;;;;;22.04;69.75;97829.56;5052585;28;20025;-73
2021/07/06 06:46:54;;;;;;;5.32;3.70;;;;;;;22.37;69.29;97851.97;5052686;28;20386;-74
2021/07/06 06:49:20;;;;;;;4.78;4.13;;;;;;;22.23;70.84;97859.34;5051988;28;20485;-76
2021/07/06 06:51:45;;;;;;;5.50;3.97;;;;;;;22.14;71.52;97856.81;5043545;28;20029;-74
2021/07/06 06:54:11;;;;;;;6.68;4.15;;;;;;;22.25;70.61;97854.19;5051999;28;20430;-75
2021/07/06 06:56:39;;;;;;;4.90;4.10;;;;;;;22.19;71.10;97855.69;5051774;28;20033;-75
2021/07/06 06:59:06;;;;;;;5.72;4.30;;;;;;;22.44;69.08;97851.28;5034062;28;20114;-74
2021/07/06 07:01:32;;;;;;;7.70;4.90;;;;;;;22.50;67.77;97846.19;5051911;28;20037;-74
2021/07/06 07:03:57;;;;;;;4.97;4.45;;;;;;;21.97;70.09;97848.16;5051795;28;20036;-74
2021/07/06 07:06:23;;;;;;;8.38;4.00;;;;;;;22.30;69.39;97837.94;5052027;28;20474;-75
2021/07/06 07:08:48;;;;;;;6.63;4.43;;;;;;;22.50;67.29;97838.63;5052427;28;20039;-75
2021/07/06 07:11:13;;;;;;;6.80;4.35;;;;;;;22.66;66.95;97846.84;5033835;28;20477;-74
2021/07/06 07:13:39;;;;;;;4.55;3.97;;;;;;;23.23;65.16;97857.59;5051930;28;20037;-75
2021/07/06 07:16:05;;;;;;;5.05;3.47;;;;;;;23.38;64.26;97850.97;5033687;28;20033;-74
2021/07/06 07:18:32;;;;;;;5.53;4.40;;;;;;;23.28;64.38;97857.22;5051254;28;20037;-74
2021/07/06 07:20:57;;;;;;;9.73;4.13;;;;;;;23.26;64.80;97856.81;5051595;28;20025;-74
2021/07/06 07:23:22;;;;;;;6.47;4.85;;;;;;;23.37;65.60;97854.13;5051625;28;20039;-73
2021/07/06 07:25:48;;;;;;;6.75;4.18;;;;;;;23.79;64.02;97853.81;5051722;28;20499;-75
2021/07/06 07:28:13;;;;;;;5.78;4.00;;;;;;;24.19;61.91;97855.78;5051570;28;20025;-74
2021/07/06 07:30:39;;;;;;;8.95;3.58;;;;;;;24.30;62.51;97854.72;5033476;28;20119;-75
2021/07/06 07:33:04;;;;;;;5.05;4.32;;;;;;;24.46;61.14;97855.19;5050243;28;20017;-76
2021/07/06 07:35:30;;;;;;;10.57;4.40;;;;;;;24.28;61.86;97859.06;5049785;28;20025;-75
2021/07/06 07:37:55;;;;;;;10.20;4.57;;;;;;;24.02;62.34;97864.81;5049647;28;20032;-74
2021/07/06 07:40:20;;;;;;;6.97;4.45;;;;;;;24.25;62.30;97855.03;5049465;28;20100;-75
2021/07/06 07:42:48;;;;;;;7.60;4.68;;;;;;;24.29;62.82;97869.06;5049576;28;20066;-74
2021/07/06 07:45:14;;;;;;;5.70;4.38;;;;;;;24.10;62.72;97864.47;5049615;28;20124;-75
2021/07/06 07:47:40;;;;;;;5.13;4.00;;;;;;;24.30;61.06;97860.31;5049918;28;20481;-75
2021/07/06 07:50:06;;;;;;;12.40;4.60;;;;;;;24.35;61.28;97859.13;5052370;28;20020;-74
2021/07/06 07:52:33;;;;;;;5.10;4.28;;;;;;;24.79;61.46;97864.59;5069156;28;20012;-75
2021/07/06 07:55:02;;;;;;;5.38;4.28;;;;;;;25.12;60.19;97863.63;5053518;28;20032;-75
2021/07/06 07:57:28;;;;;;;5.97;4.10;;;;;;;25.24;58.65;97861.28;5052535;28;20025;-75
2021/07/06 07:59:54;;;;;;;6.25;4.63;;;;;;;25.49;58.07;97859.41;5033102;28;20124;-73
2021/07/06 08:02:21;;;;;;;8.02;4.68;;;;;;;25.48;57.20;97862.53;5050305;28;20037;-75
2021/07/06 08:04:47;;;;;;;7.75;4.32;;;;;;;25.34;57.12;97854.09;5023957;28;20082;-74
2021/07/06 08:07:12;;;;;;;7.95;4.25;;;;;;;25.55;56.84;97849.41;5031427;28;20425;-75
2021/07/06 08:09:39;;;;;;;7.30;5.13;;;;;;;26.34;54.39;97839.88;5051814;28;20051;-76
2021/07/06 08:12:05;;;;;;;6.75;4.45;;;;;;;25.66;56.30;97843.00;5065199;28;20043;-76
2021/07/06 08:14:31;;;;;;;5.82;4.03;;;;;;;26.06;56.80;97839.88;5055472;28;20021;-78
2021/07/06 08:16:58;;;;;;;8.32;4.28;;;;;;;25.85;56.28;97851.84;5051195;28;20044;-77
2021/07/06 08:19:27;;;;;;;6.75;4.82;;;;;;;25.84;55.71;97849.47;5032907;28;20028;-75
2021/07/06 08:21:52;;;;;;;6.28;4.30;;;;;;;26.16;56.28;97838.28;5050527;28;20104;-77
2021/07/06 08:24:18;;;;;;;8.23;4.32;;;;;;;26.65;54.96;97840.22;5050656;28;20108;-74
2021/07/06 08:26:44;;;;;;;6.22;4.28;;;;;;;26.46;55.06;97836.66;5050838;28;20056;-73
2021/07/06 08:29:10;;;;;;;7.63;4.43;;;;;;;26.62;53.64;97836.25;5050877;28;20029;-74
2021/07/06 08:31:35;;;;;;;5.70;3.95;;;;;;;26.76;53.79;97838.19;5050274;28;20025;-73
2021/07/06 08:34:01;;;;;;;6.30;4.13;;;;;;;27.01;53.39;97833.34;5051025;28;20466;-74
2021/07/06 08:36:26;;;;;;;8.98;4.07;;;;;;;27.31;52.37;97836.44;5050998;28;20120;-74
2021/07/06 08:38:52;;;;;;;5.95;3.60;;;;;;;27.66;52.80;97835.44;5049712;28;20023;-74
2021/07/06 08:41:17;;;;;;;6.20;3.85;;;;;;;27.92;49.90;97836.88;5036377;28;20029;-76
2021/07/06 08:43:43;;;;;;;4.65;3.85;;;;;;;28.12;49.38;97835.16;5035490;28;20029;-77
2021/07/06 08:46:18;;;;;;;6.70;3.70;;;;;;;27.97;50.86;97833.66;5037272;28;20423;-78
2021/07/06 08:48:46;;;;;;;8.73;3.87;;;;;;;27.93;49.81;97835.69;5049203;28;20513;-77
2021/07/06 08:51:15;;;;;;;3.85;3.35;;;;;;;28.24;48.44;97831.84;5049023;28;20353;-78
2021/07/06 08:53:40;;;;;;;6.57;3.22;;;;;;;28.16;48.58;97831.09;5035088;28;20108;-78
2021/07/06 08:56:07;;;;;;;6.35;3.42;;;;;;;28.26;49.35;97820.97;5052361;28;20108;-77
2021/07/06 08:58:32;;;;;;;6.05;3.17;;;;;;;28.33;49.07;97826.53;5053781;28;20052;-77
2021/07/06 09:00:58;;;;;;;4.93;3.30;;;;;;;28.05;48.79;97836.00;5051321;28;20053;-77
2021/07/06 09:03:24;;;;;;;4.20;2.80;;;;;;;27.69;48.96;97825.41;5041989;28;20021;-77
2021/07/06 09:06:04;;;;;;;4.38;3.33;;;;;;;27.67;48.47;97835.03;5026562;28;20017;-78
2021/07/06 09:08:29;;;;;;;7.05;3.17;;;;;;;27.99;47.81;97836.84;5053313;28;20067;-76
2021/07/06 09:10:55;;;;;;;3.17;2.47;;;;;;;28.11;46.76;97827.94;5036011;28;20044;-80
2021/07/06 09:13:32;;;;;;;3.50;3.20;;;;;;;28.19;46.69;97829.47;5034662;28;20029;-77
2021/07/06 09:15:58;;;;;;;5.63;3.42;;;;;;;28.13;47.94;97828.34;5040454;28;20040;-77
2021/07/06 09:18:32;;;;;;;3.90;3.42;;;;;;;27.76;48.62;97820.53;5053117;28;20025;-76
2021/07/06 09:21:09;;;;;;;9.60;3.20;;;;;;;27.81;48.24;97813.66;5052929;28;20028;-75
2021/07/06 09:23:37;;;;;;;5.10;3.42;;;;;;;28.26;48.08;97806.88;5034199;28;20074;-76
2021/07/06 09:26:29;;;;;;;4.50;3.15;;;;;;;28.60;47.24;97816.22;5055526;28;20024;-74
2021/07/06 09:29:00;;;;;;;10.07;4.13;;;;;;;28.58;46.37;97815.84;5056503;28;20035;-76
2021/07/06 09:31:36;;;;;;;7.45;3.13;;;;;;;27.79;46.12;97816.09;5063589;28;20021;-74
2021/07/06 09:34:08;;;;;;;6.72;3.58;;;;;;;27.48;46.47;97813.06;5057602;28;20116;-76
2021/07/06 09:36:45;;;;;;;4.28;3.05;;;;;;;27.47;47.35;97811.47;5058973;28;20052;-77
2021/07/06 09:39:21;;;;;;;5.55;3.47;;;;;;;28.05;45.09;97812.72;5055356;28;20052;-74
2021/07/06 09:42:04;;;;;;;7.57;2.70;;;;;;;27.88;44.00;97813.63;5035334;28;20127;-78
2021/07/06 09:44:34;;;;;;;4.03;2.97;;;;;;;28.09;44.49;97807.84;5058384;28;20095;-77
2021/07/06 09:47:05;;;;;;;5.18;3.75;;;;;;;27.26;44.66;97797.50;5044972;28;20042;-75
2021/07/06 09:49:33;;;;;;;4.95;3.20;;;;;;;27.16;45.61;97800.38;5032943;28;20033;-75
2021/07/06 09:52:10;;;;;;;3.33;3.00;;;;;;;27.97;44.09;97800.69;5033854;28;20043;-78
2021/07/06 09:54:37;;;;;;;5.47;2.90;;;;;;;28.11;41.69;97788.53;5052435;28;20479;-78
2021/07/06 09:57:05;;;;;;;4.32;3.92;;;;;;;28.17;42.83;97803.75;5032235;28;20044;-76
2021/07/06 09:59:31;;;;;;;7.28;3.65;;;;;;;28.36;43.72;97805.19;5053237;28;20017;-78
2021/07/06 10:02:02;;;;;;;5.18;4.07;;;;;;;28.09;44.54;97796.59;5051588;28;20025;-78
2021/07/06 10:04:29;;;;;;;7.05;3.60;;;;;;;28.19;45.19;97790.09;5052518;28;20037;-78
2021/07/06 10:06:57;;;;;;;4.85;4.25;;;;;;;27.87;46.09;97790.31;5034352;28;20080;-78
2021/07/06 10:09:24;;;;;;;4.38;3.58;;;;;;;28.07;46.25;97790.56;5052446;28;20029;-77
2021/07/06 10:11:50;;;;;;;7.25;3.30;;;;;;;28.36;45.50;97777.03;5035925;28;20021;-77
2021/07/06 10:14:15;;;;;;;5.35;3.95;;;;;;;28.18;45.55;97788.47;5054147;28;20108;-77
2021/07/06 10:16:42;;;;;;;4.22;3.67;;;;;;;28.68;44.19;97774.72;5036238;28;20428;-76
2021/07/06 10:19:08;;;;;;;6.28;3.85;;;;;;;28.97;44.71;97783.66;5035576;28;20056;-78
2021/07/06 10:21:35;;;;;;;4.70;4.15;;;;;;;28.70;44.64;97783.56;5053069;28;20048;-77
2021/07/06 10:24:04;;;;;;;5.63;4.30;;;;;;;28.47;45.86;97778.56;5051438;28;20022;-77
2021/07/06 10:26:30;;;;;;;4.10;3.70;;;;;;;28.41;44.94;97779.44;5051380;28;20571;-78
2021/07/06 10:28:56;;;;;;;3.95;3.20;;;;;;;28.45;45.41;97778.16;5051506;28;20035;-75
2021/07/06 10:31:24;;;;;;;5.47;3.97;;;;;;;28.45;45.24;97771.72;5052823;28;20021;-76
2021/07/06 10:33:51;;;;;;;4.65;3.30;;;;;;;28.57;44.44;97777.63;5033699;28;20025;-79
2021/07/06 10:36:17;;;;;;;3.50;3.20;;;;;;;28.59;44.51;97769.56;5050192;28;20033;-78
2021/07/06 10:38:57;;;;;;;3.60;3.03;;;;;;;29.02;44.30;97767.06;5032407;28;20493;-77
2021/07/06 10:41:34;;;;;;;5.15;3.90;;;;;;;28.34;46.16;97763.41;5048028;28;20052;-78
2021/07/06 10:44:02;;;;;;;4.22;3.85;;;;;;;28.24;46.21;97764.31;5047842;28;20079;-77
2021/07/06 10:46:30;;;;;;;4.28;3.50;;;;;;;28.37;45.50;97768.19;5050201;28;20067;-75
2021/07/06 10:49:08;;;;;;;3.83;3.45;;;;;;;29.19;43.66;97763.25;5050302;28;20131;-78
2021/07/06 10:51:33;;;;;;;4.10;3.20;;;;;;;29.62;43.33;97760.63;5026750;28;20009;-77
2021/07/06 10:54:12;;;;;;;3.90;3.50;;;;;;;29.84;42.78;97763.13;5020994;28;20026;-75
2021/07/06 10:56:42;;;;;;;5.22;3.75;;;;;;;29.44;43.23;97756.47;5047830;28;20041;-77
2021/07/06 10:59:37;;;;;;;5.72;3.83;;;;;;;29.37;43.69;97754.56;5049837;28;20747;-76
2021/07/06 11:02:07;;;;;;;3.30;3.00;;;;;;;29.30;42.25;97757.47;5030293;28;20402;-77
2021/07/06 11:04:51;;;;;;;4.15;3.75;;;;;;;29.63;43.31;97756.56;5047129;28;20025;-77
2021/07/06 11:07:35;;;;;;;3.53;3.22;;;;;;;29.72;42.64;97756.84;5047605;28;20022;-76
2021/07/06 11:10:05;;;;;;;3.05;2.78;;;;;;;29.58;43.20;97739.31;5047850;28;20075;-74
2021/07/06 11:12:48;;;;;;;4.30;3.78;;;;;;;29.84;42.24;97746.19;5051330;28;20473;-75
2021/07/06 11:15:13;;;;;;;7.95;3.33;;;;;;;29.70;42.33;97748.00;5029782;28;20076;-74
2021/07/06 11:17:47;;;;;;;4.05;3.03;;;;;;;30.18;41.76;97741.16;5033448;28;20036;-74
2021/07/06 11:20:37;;;;;;;69.78;16.58;;;;;;;30.50;40.90;97743.44;5049268;28;20028;-74
2021/07/06 11:23:05;;;;;;;39.63;9.90;;;;;;;30.93;40.48;97732.06;5021404;28;20038;-74
2021/07/06 11:25:31;;;;;;;9.40;4.13;;;;;;;30.97;39.95;97724.34;5013287;28;20036;-76
2021/07/06 11:27:58;;;;;;;5.70;3.47;;;;;;;31.13;39.36;97713.91;5012873;28;20074;-75
2021/07/06 11:30:30;;;;;;;7.90;3.33;;;;;;;31.29;39.41;97705.44;5012712;28;20029;-78
2021/07/06 11:33:14;;;;;;;132.88;39.67;;;;;;;31.12;39.60;97708.66;5012533;28;20053;-78